Time;durP1;ratioP1;P1;durP2;ratioP2;P2;SDS_P1;SDS_P2;PMS_P1;PMS_P2;Temp;Humidity;BMP_temperature;BMP_pressure;BME280_temperature;BME280_humidity;BME280_pressure;Samples;Min_cycle;Max_cycle;Signal;HPM_P1;HPM_P2
2024/03/02 00:01:24;;;;;;;91.90;55.80;;;;;;;9.51;86.17;100266.28;103064;1314;22582;-57
2024/03/02 00:03:50;;;;;;;85.00;51.90;;;;;;;9.51;86.08;100263.00;102991;1311;24239;-57
2024/03/02 00:06:21;;;;;;;94.60;56.00;;;;;;;9.50;85.96;100255.96;103044;1308;23441;-56
2024/03/02 00:08:47;;;;;;;88.30;53.60;;;;;;;9.49;86.04;100253.24;103037;1314;22580;-55
2024/03/02 00:11:14;;;;;;;95.00;55.00;;;;;;;9.43;86.39;100249.55;103000;1314;25463;-57
2024/03/02 00:13:39;;;;;;;;;;;;;;;9.42;86.54;100247.17;103100;1308;25306;-54
2024/03/02 00:16:05;;;;;;;91.00;53.00;;;;;;;9.39;86.81;100244.13;103128;1297;23312;-56
2024/03/02 00:18:33;;;;;;;94.70;55.10;;;;;;;9.35;86.50;100243.00;103454;1314;22550;-58
2024/03/02 00:20:59;;;;;;;93.00;55.70;;;;;;;9.33;86.52;100244.60;103128;1309;22608;-58
2024/03/02 00:23:33;;;;;;;92.60;55.70;;;;;;;9.31;86.63;100246.35;103112;1313;22589;-57
2024/03/02 00:26:02;;;;;;;93.70;56.00;;;;;;;9.30;86.80;100244.64;103284;1292;22576;-57
2024/03/02 00:28:35;;;;;;;100.70;57.60;;;;;;;9.30;86.66;100239.14;103150;1301;24314;-56
2024/03/02 00:31:08;;;;;;;91.90;55.30;;;;;;;9.30;86.97;100231.58;103238;1311;22618;-57
2024/03/02 00:33:36;;;;;;;93.50;56.30;;;;;;;9.27;87.03;100232.83;105357;1304;24319;-57
2024/03/02 00:36:06;;;;;;;98.10;61.10;;;;;;;9.23;87.07;100231.67;102948;1301;24375;-57
2024/03/02 00:38:33;;;;;;;104.50;61.70;;;;;;;9.22;87.27;100238.57;103727;1309;24080;-58
2024/03/02 00:41:15;;;;;;;97.80;59.10;;;;;;;9.22;87.23;100236.69;105150;1315;23106;-55
2024/03/02 00:43:49;;;;;;;118.30;64.60;;;;;;;9.21;87.61;100233.60;103077;1309;22558;-58
2024/03/02 00:46:18;;;;;;;109.50;63.90;;;;;;;9.23;87.39;100230.98;103094;1297;24289;-58
2024/03/02 00:48:55;;;;;;;111.90;64.20;;;;;;;9.24;87.89;100235.62;103512;1314;22561;-57
2024/03/02 00:51:23;;;;;;;107.10;64.00;;;;;;;9.25;87.50;100233.38;103144;1308;23826;-58
2024/03/02 00:53:49;;;;;;;113.70;64.40;;;;;;;9.25;87.40;100226.66;103435;1314;22575;-58
2024/03/02 00:56:15;;;;;;;106.80;64.80;;;;;;;9.26;87.62;100225.27;103042;1297;25392;-57
2024/03/02 00:58:43;;;;;;;122.80;69.10;;;;;;;9.27;87.98;100224.90;103130;1301;22755;-58
2024/03/02 01:01:09;;;;;;;122.00;66.50;;;;;;;9.28;88.36;100229.19;103111;1316;25533;-58
2024/03/02 01:03:35;;;;;;;122.10;66.00;;;;;;;9.29;88.36;100227.80;103113;1316;22796;-56
2024/03/02 01:06:01;;;;;;;136.10;72.80;;;;;;;9.30;88.16;100225.56;103061;1295;24409;-58
2024/03/02 01:08:26;;;;;;;122.60;66.90;;;;;;;9.30;89.48;100221.92;103051;1313;22696;-55
2024/03/02 01:10:52;;;;;;;124.20;68.50;;;;;;;9.30;88.64;100224.52;103088;1316;22574;-58
2024/03/02 01:13:17;;;;;;;125.00;68.40;;;;;;;9.31;88.77;100223.46;103095;1311;24320;-57
2024/03/02 01:15:43;;;;;;;124.50;69.80;;;;;;;9.31;89.35;100227.09;103099;1302;25518;-58
2024/03/02 01:18:09;;;;;;;138.20;69.60;;;;;;;9.31;88.73;100222.61;103176;1305;22635;-58
2024/03/02 01:20:35;;;;;;;133.20;71.50;;;;;;;9.32;88.79;100221.40;103170;1308;25453;-58
2024/03/02 01:23:00;;;;;;;131.90;70.20;;;;;;;9.33;89.31;100216.55;103075;1307;23059;-57
2024/03/02 01:25:26;;;;;;;120.00;64.80;;;;;;;9.33;89.51;100217.42;103079;1316;24320;-58
2024/03/02 01:27:52;;;;;;;127.30;68.90;;;;;;;9.32;89.27;100216.41;103176;1297;22575;-57
2024/03/02 01:30:17;;;;;;;129.30;70.60;;;;;;;9.31;89.12;100211.77;103087;1314;22595;-58
2024/03/02 01:32:43;;;;;;;132.90;68.50;;;;;;;9.31;89.62;100208.17;103153;1307;22593;-58
2024/03/02 01:35:08;;;;;;;129.70;71.00;;;;;;;9.30;89.33;100208.18;103237;1310;22589;-57
2024/03/02 01:37:34;;;;;;;122.30;66.70;;;;;;;9.30;90.44;100209.05;103185;1296;22563;-55
2024/03/02 01:40:00;;;;;;;130.60;69.30;;;;;;;9.30;90.11;100205.09;103461;1307;22565;-58
2024/03/02 01:42:25;;;;;;;132.30;71.80;;;;;;;9.29;89.79;100206.13;103201;1310;25581;-58
2024/03/02 01:44:52;;;;;;;132.30;67.50;;;;;;;9.28;90.52;100206.31;103150;1307;25393;-58
2024/03/02 01:47:18;;;;;;;131.40;70.40;;;;;;;9.26;90.56;100206.69;103094;1297;25304;-58
2024/03/02 01:49:43;;;;;;;129.60;67.60;;;;;;;9.25;89.91;100203.45;104016;1314;24282;-58
2024/03/02 01:52:09;;;;;;;135.20;70.40;;;;;;;9.25;89.86;100204.30;102940;1308;25646;-58
2024/03/02 01:54:34;;;;;;;132.70;69.30;;;;;;;9.24;90.04;100196.23;103119;1314;26797;-58
2024/03/02 01:57:00;;;;;;;127.40;67.70;;;;;;;9.24;90.41;100195.39;103085;1291;25375;-58
2024/03/02 01:59:27;;;;;;;135.60;69.70;;;;;;;9.23;90.11;100196.09;103105;1304;22571;-56
2024/03/02 02:01:52;;;;;;;137.00;68.90;;;;;;;9.22;90.53;100194.89;103177;1292;22566;-58
2024/03/02 02:04:18;;;;;;;135.20;67.90;;;;;;;9.21;90.35;100193.70;103139;1314;22795;-58
2024/03/02 02:06:46;;;;;;;131.20;69.40;;;;;;;9.21;90.27;100192.17;102990;1295;22571;-57
2024/03/02 02:09:12;;;;;;;128.90;67.80;;;;;;;9.20;90.50;100184.45;103042;1315;22585;-57
2024/03/02 02:11:37;;;;;;;133.20;68.00;;;;;;;9.18;90.26;100184.12;103115;1315;25758;-59
2024/03/02 02:14:03;;;;;;;122.70;66.00;;;;;;;9.18;90.09;100184.98;103093;1304;24425;-59
2024/03/02 02:16:28;;;;;;;134.50;67.40;;;;;;;9.18;90.68;100178.80;103200;1307;22561;-57
2024/03/02 02:18:54;;;;;;;118.60;64.50;;;;;;;9.17;90.49;100181.91;103176;1310;22570;-57
2024/03/02 02:21:28;;;;;;;120.20;65.20;;;;;;;9.17;90.53;100180.72;103022;1302;27975;-58
2024/03/02 02:23:54;;;;;;;114.30;63.20;;;;;;;9.16;90.70;100182.44;103129;1307;22961;-58
2024/03/02 02:26:19;;;;;;;122.00;63.90;;;;;;;9.16;90.54;100182.45;103097;1300;25358;-58
2024/03/02 02:28:48;;;;;;;121.00;65.50;;;;;;;9.16;90.75;100183.48;103142;1298;24244;-58
2024/03/02 02:31:14;;;;;;;122.70;63.20;;;;;;;9.15;90.59;100188.83;103181;1310;22594;-58
2024/03/02 02:33:43;;;;;;;122.40;65.40;;;;;;;9.15;90.68;100189.69;103061;1310;22585;-56
2024/03/02 02:36:10;;;;;;;114.60;63.40;;;;;;;9.15;90.67;100193.30;103275;1313;22636;-58
2024/03/02 02:38:40;;;;;;;126.60;66.20;;;;;;;9.15;90.84;100189.86;103810;1296;22615;-56
2024/03/02 02:41:06;;;;;;;118.20;61.90;;;;;;;9.15;91.09;100187.80;103483;1307;22569;-59
2024/03/02 02:43:31;;;;;;;108.40;60.00;;;;;;;9.14;91.13;100190.04;103149;1309;22786;-57
2024/03/02 02:45:57;;;;;;;110.20;60.10;;;;;;;9.14;91.06;100191.77;103079;1307;24441;-55
2024/03/02 02:48:22;;;;;;;110.90;60.40;;;;;;;9.14;90.71;100192.45;103170;1315;22566;-57
2024/03/02 02:50:48;;;;;;;113.50;61.60;;;;;;;9.14;90.93;100194.34;103255;1310;24729;-58
2024/03/02 02:53:13;;;;;;;109.70;60.10;;;;;;;9.14;91.05;100188.34;103239;1314;25124;-57
2024/03/02 02:55:40;;;;;;;112.80;61.70;;;;;;;9.13;90.82;100187.31;103151;1307;22561;-57
2024/03/02 02:58:09;;;;;;;110.00;61.70;;;;;;;9.12;90.79;100188.36;103166;1297;22570;-58
2024/03/02 03:00:36;;;;;;;109.40;61.30;;;;;;;9.12;90.97;100188.36;103117;1310;25589;-58
2024/03/02 03:03:02;;;;;;;115.10;60.70;;;;;;;9.12;90.73;100187.52;103220;1307;22835;-57
2024/03/02 03:05:27;;;;;;;112.20;62.00;;;;;;;9.12;91.11;100188.20;103185;1304;23043;-57
2024/03/02 03:07:53;;;;;;;117.10;62.60;;;;;;;9.10;91.52;100188.90;103049;1292;24280;-58
2024/03/02 03:10:21;;;;;;;115.00;63.50;;;;;;;9.09;91.46;100182.73;103161;1315;22566;-58
2024/03/02 03:12:47;;;;;;;107.00;60.50;;;;;;;9.09;90.98;100184.64;103178;1307;23066;-55
2024/03/02 03:15:14;;;;;;;122.60;61.60;;;;;;;9.09;91.11;100182.56;103105;1315;22585;-57
2024/03/02 03:17:40;;;;;;;125.90;63.60;;;;;;;9.07;90.79;100180.02;103127;1301;22590;-59
2024/03/02 03:20:09;;;;;;;117.70;63.80;;;;;;;9.07;90.89;100182.08;103088;1293;22703;-57
2024/03/02 03:22:38;;;;;;;109.70;61.00;;;;;;;9.06;91.15;100180.20;103381;1309;22815;-58
2024/03/02 03:25:05;;;;;;;107.80;61.20;;;;;;;9.07;90.77;100183.81;103031;1315;22790;-58
2024/03/02 03:27:32;;;;;;;117.60;60.60;;;;;;;9.07;90.89;100184.84;103096;1310;26786;-60
2024/03/02 03:29:57;;;;;;;111.70;62.30;;;;;;;9.07;91.84;100185.70;103174;1298;22584;-58
2024/03/02 03:32:22;;;;;;;112.40;60.50;;;;;;;9.05;91.30;100184.69;103174;1314;22559;-58
2024/03/02 03:34:49;;;;;;;107.90;60.70;;;;;;;9.06;90.96;100186.23;103221;1314;22667;-58
2024/03/02 03:37:15;;;;;;;108.90;61.50;;;;;;;9.06;91.09;100184.51;104441;1292;24285;-57
2024/03/02 03:39:41;;;;;;;116.70;59.90;;;;;;;9.07;90.91;100180.88;103332;1294;22581;-57
2024/03/02 03:42:06;;;;;;;110.30;60.30;;;;;;;9.07;90.98;100178.13;103153;1300;24222;-59
2024/03/02 03:44:33;;;;;;;107.80;59.40;;;;;;;9.06;91.11;100178.31;103085;1315;23682;-59
2024/03/02 03:47:00;;;;;;;100.90;57.20;;;;;;;9.07;90.99;100181.06;104097;1297;22863;-59
2024/03/02 03:49:26;;;;;;;101.80;57.20;;;;;;;9.07;91.45;100174.54;103853;1295;22566;-57
2024/03/02 03:51:51;;;;;;;105.00;57.20;;;;;;;9.05;91.30;100170.44;103153;1307;22675;-59
2024/03/02 03:54:17;;;;;;;102.20;58.50;;;;;;;9.04;91.36;100171.13;103135;1308;23741;-58
2024/03/02 03:56:42;;;;;;;106.70;57.50;;;;;;;9.03;91.72;100166.50;103143;1312;22809;-59
2024/03/02 03:59:08;;;;;;;100.20;56.80;;;;;;;9.02;91.21;100165.66;103156;1294;22705;-59
2024/03/02 04:01:33;;;;;;;96.30;56.20;;;;;;;9.02;91.14;100166.70;103108;1307;25447;-59
2024/03/02 04:03:59;;;;;;;97.30;55.60;;;;;;;9.02;91.19;100163.27;103118;1313;26447;-59
2024/03/02 04:06:27;;;;;;;101.50;55.80;;;;;;;9.00;91.52;100164.48;103138;1314;22660;-59
2024/03/02 04:08:53;;;;;;;94.20;55.00;;;;;;;8.98;91.43;100162.11;103131;1300;24250;-57
2024/03/02 04:11:18;;;;;;;94.60;54.70;;;;;;;8.98;91.09;100161.26;103181;1298;25388;-59
2024/03/02 04:13:44;;;;;;;93.70;53.80;;;;;;;8.97;91.15;100161.79;103165;1307;22732;-58
2024/03/02 04:16:09;;;;;;;97.90;56.00;;;;;;;8.96;91.51;100164.89;103103;1314;24316;-58
2024/03/02 04:18:35;;;;;;;95.80;54.50;;;;;;;8.95;91.41;100174.20;103140;1314;22559;-59
2024/03/02 04:21:00;;;;;;;99.90;55.70;;;;;;;8.94;91.21;100175.58;103075;1296;22585;-59
2024/03/02 04:23:28;;;;;;;89.30;54.40;;;;;;;8.94;90.94;100174.05;103028;1308;22564;-58
2024/03/02 04:25:54;;;;;;;96.90;54.50;;;;;;;8.93;91.09;100171.14;103063;1314;22754;-59
2024/03/02 04:28:19;;;;;;;92.70;53.50;;;;;;;8.93;91.05;100174.22;103082;1307;22852;-59
2024/03/02 04:30:45;;;;;;;96.70;54.70;;;;;;;8.92;90.99;100172.01;103101;1298;23011;-59
2024/03/02 04:33:10;;;;;;;91.10;50.40;;;;;;;8.91;91.22;100172.89;103102;1304;22582;-59
2024/03/02 04:35:37;;;;;;;101.10;54.60;;;;;;;8.89;91.06;100174.64;103164;1307;22694;-58
2024/03/02 04:38:02;;;;;;;85.20;51.30;;;;;;;8.88;91.01;100175.17;103182;1302;24263;-59
2024/03/02 04:40:28;;;;;;;95.80;53.30;;;;;;;8.86;91.13;100174.52;103132;1297;22618;-57
2024/03/02 04:42:54;;;;;;;90.50;52.90;;;;;;;8.84;91.42;100177.98;103133;1307;22548;-58
2024/03/02 04:45:19;;;;;;;94.70;51.70;;;;;;;8.82;91.10;100178.56;103206;1314;22603;-58
2024/03/02 04:47:45;;;;;;;89.30;51.00;;;;;;;8.81;91.16;100178.58;103157;1311;25323;-58
2024/03/02 04:50:11;;;;;;;92.40;51.70;;;;;;;8.80;91.15;100179.47;103192;1291;25626;-57
2024/03/02 04:52:36;;;;;;;88.80;50.50;;;;;;;8.77;91.27;100181.56;103154;1308;26678;-56
2024/03/02 04:57:47;;;;;;;94.90;52.80;;;;;;;8.75;91.15;100188.48;103152;1307;22566;-59
2024/03/02 05:00:13;;;;;;;95.10;54.90;;;;;;;8.74;91.58;100191.24;103238;1305;22606;-59
2024/03/02 05:02:39;;;;;;;86.90;49.80;;;;;;;8.72;91.43;100195.56;103196;1314;23005;-59
2024/03/02 05:05:05;;;;;;;95.90;52.40;;;;;;;8.72;91.24;100192.82;103183;1307;25342;-59
2024/03/02 05:07:30;;;;;;;92.20;51.30;;;;;;;8.71;91.44;100193.70;103163;1314;24250;-57
2024/03/02 05:09:55;;;;;;;89.40;51.20;;;;;;;8.69;91.97;100194.58;103164;1307;23034;-59
2024/03/02 05:15:07;;;;;;;93.40;54.90;;;;;;;8.66;91.73;100198.23;103143;1314;24260;-59
2024/03/02 05:17:33;;;;;;;86.40;48.90;;;;;;;8.66;91.42;100200.30;104993;1312;22568;-59
2024/03/02 05:19:58;;;;;;;96.10;52.10;;;;;;;8.66;91.35;100202.35;103136;1308;22592;-59
2024/03/02 05:22:24;;;;;;;82.30;49.20;;;;;;;8.66;91.56;100205.10;103122;1297;22589;-59
2024/03/02 05:24:50;;;;;;;95.30;51.50;;;;;;;8.65;91.59;100207.52;103215;1313;25380;-58
2024/03/02 05:27:15;;;;;;;93.60;51.90;;;;;;;8.63;91.37;100211.16;103116;1310;22825;-59
2024/03/02 05:29:41;;;;;;;93.40;49.80;;;;;;;8.64;91.30;100219.58;103135;1313;22699;-59
2024/03/02 05:32:07;;;;;;;87.30;48.70;;;;;;;8.63;91.41;100217.52;103015;1297;22568;-59
2024/03/02 05:34:34;;;;;;;87.00;49.60;;;;;;;8.62;91.44;100214.42;103185;1310;22548;-59
2024/03/02 05:37:00;;;;;;;89.90;50.70;;;;;;;8.63;91.31;100214.77;103096;1296;22683;-55
2024/03/02 05:39:25;;;;;;;89.70;48.60;;;;;;;8.62;91.37;100216.50;103129;1307;22604;-58
2024/03/02 05:41:51;;;;;;;89.90;50.40;;;;;;;8.62;91.42;100216.50;103165;1295;27009;-58
2024/03/02 05:44:18;;;;;;;80.80;47.40;;;;;;;8.61;91.41;100215.83;103119;1307;22699;-59
2024/03/02 05:46:44;;;;;;;90.50;48.30;;;;;;;8.60;91.64;100218.25;103162;1307;22823;-57
2024/03/02 05:49:10;;;;;;;84.10;48.20;;;;;;;8.59;91.64;100215.67;103181;1314;24326;-58
2024/03/02 05:51:35;;;;;;;90.40;48.50;;;;;;;8.59;91.62;100223.25;103228;1310;25361;-59
2024/03/02 05:54:01;;;;;;;94.40;47.20;;;;;;;8.58;91.58;100226.52;103016;1299;22579;-57
2024/03/02 05:56:27;;;;;;;86.10;48.20;;;;;;;8.59;91.53;100226.67;103149;1309;25326;-58
2024/03/02 06:01:37;;;;;;;84.80;47.20;;;;;;;8.60;91.90;100223.91;103148;1314;22694;-55
2024/03/02 06:04:03;;;;;;;96.00;49.90;;;;;;;8.60;91.80;100228.73;103096;1301;23113;-56
2024/03/02 06:06:28;;;;;;;84.70;47.50;;;;;;;8.59;92.16;100232.51;103853;1308;27553;-58
2024/03/02 06:08:54;;;;;;;83.70;48.00;;;;;;;8.60;91.86;100234.91;103173;1308;25457;-58
2024/03/02 06:11:19;;;;;;;89.60;49.80;;;;;;;8.63;91.91;100231.61;103207;1294;24352;-59
2024/03/02 06:13:45;;;;;;;90.50;49.10;;;;;;;8.63;92.23;100231.78;103126;1310;24383;-58
2024/03/02 06:16:10;;;;;;;78.60;44.30;;;;;;;8.63;91.85;100237.95;103041;1305;24253;-58
2024/03/02 06:18:37;;;;;;;92.90;49.40;;;;;;;8.66;91.83;100237.59;103138;1310;22678;-58
2024/03/02 06:21:02;;;;;;;84.90;47.30;;;;;;;8.66;91.80;100238.10;103179;1306;23840;-58
2024/03/02 06:23:28;;;;;;;87.50;47.70;;;;;;;8.67;91.77;100241.34;103131;1296;24407;-58
2024/03/02 06:25:53;;;;;;;84.90;47.40;;;;;;;8.70;91.89;100244.05;103060;1315;22562;-56
2024/03/02 06:28:19;;;;;;;88.50;51.00;;;;;;;8.70;91.80;100243.70;103238;1298;26438;-57
2024/03/02 06:30:45;;;;;;;88.40;50.90;;;;;;;8.71;91.70;100242.14;103208;1308;22596;-58
2024/03/02 06:33:11;;;;;;;90.00;49.70;;;;;;;8.73;91.76;100249.52;103126;1298;22814;-59
2024/03/02 06:35:37;;;;;;;79.40;46.90;;;;;;;8.70;91.75;100248.34;103190;1314;25671;-57
2024/03/02 06:38:02;;;;;;;87.20;45.90;;;;;;;8.73;91.89;100246.76;103192;1308;22617;-58
2024/03/02 06:40:28;;;;;;;81.40;45.80;;;;;;;8.73;91.97;100249.33;103113;1314;22578;-58
2024/03/02 06:42:53;;;;;;;86.80;45.80;;;;;;;8.74;91.91;100253.80;103164;1315;22561;-56
2024/03/02 06:45:19;;;;;;;80.90;46.10;;;;;;;8.74;92.03;100252.08;103161;1315;22589;-58
2024/03/02 06:47:44;;;;;;;79.50;46.20;;;;;;;8.77;92.00;100250.48;103171;1313;24232;-58
2024/03/02 06:50:10;;;;;;;75.50;43.70;;;;;;;8.78;92.24;100253.55;103200;1308;25506;-58
2024/03/02 06:52:36;;;;;;;88.00;47.80;;;;;;;8.79;92.14;100254.05;103092;1298;25461;-58
2024/03/02 06:55:03;;;;;;;83.70;45.00;;;;;;;8.83;92.07;100250.05;103136;1302;22792;-58
2024/03/02 06:57:29;;;;;;;74.70;44.30;;;;;;;8.86;92.13;100252.21;103134;1315;22591;-57
2024/03/02 06:59:58;;;;;;;74.30;42.70;;;;;;;8.89;92.30;100252.67;103189;1313;25486;-58
2024/03/02 07:02:44;;;;;;;73.40;43.90;;;;;;;8.90;92.29;100248.88;107085;1293;22467;-58
2024/03/02 07:05:11;;;;;;;76.30;43.30;;;;;;;8.92;92.16;100249.20;106588;1315;22209;-58
2024/03/02 07:07:37;;;;;;;75.00;42.40;;;;;;;8.96;92.12;100247.42;106591;1313;22373;-58
2024/03/02 07:10:09;;;;;;;75.50;43.70;;;;;;;8.99;92.09;100244.45;104178;1316;25381;-57
2024/03/02 07:12:35;;;;;;;74.00;42.70;;;;;;;9.02;92.13;100247.67;106576;1322;22284;-57
2024/03/02 07:17:29;;;;;;;76.20;44.20;;;;;;;9.09;92.01;100248.09;102540;1313;22686;-58
2024/03/02 07:19:55;;;;;;;75.50;42.50;;;;;;;9.12;92.06;100250.09;95494;1313;10004390;-58
2024/03/02 07:22:21;;;;;;;72.60;43.70;;;;;;;9.12;92.00;100256.11;102575;1307;22599;-58
2024/03/02 07:24:47;;;;;;;66.30;41.10;;;;;;;9.13;92.02;100262.80;102569;1302;23829;-58
2024/03/02 07:27:13;;;;;;;72.70;43.30;;;;;;;9.17;92.04;100259.98;102535;1310;22594;-59
2024/03/02 07:29:39;;;;;;;70.60;41.20;;;;;;;9.24;92.13;100262.97;102569;1321;22822;-59
2024/03/02 07:32:07;;;;;;;70.90;41.60;;;;;;;9.34;92.15;100269.02;102537;1316;25101;-58
2024/03/02 07:34:32;;;;;;;73.70;42.20;;;;;;;9.48;92.15;100266.85;106564;1301;23207;-58
2024/03/02 07:37:01;;;;;;;70.00;41.30;;;;;;;9.65;92.16;100266.88;104784;1313;22756;-57
2024/03/02 07:39:27;;;;;;;69.20;42.00;;;;;;;9.88;92.21;100262.50;102619;1314;22734;-58
2024/03/02 07:41:53;;;;;;;63.40;40.70;;;;;;;10.12;92.18;100266.67;102697;1313;23031;-58
2024/03/02 07:44:19;;;;;;;62.70;38.30;;;;;;;10.35;92.08;100271.75;103157;1298;22568;-58
2024/03/02 07:46:52;;;;;;;54.90;37.30;;;;;;;10.60;91.79;100272.41;103133;1307;25408;-58
2024/03/02 07:49:21;;;;;;;67.00;40.80;;;;;;;10.79;91.40;100268.38;103098;1310;22694;-57
2024/03/02 07:51:46;;;;;;;61.20;39.20;;;;;;;10.84;91.23;100274.64;104024;1310;22568;-56
2024/03/02 07:54:12;;;;;;;64.80;39.10;;;;;;;10.84;89.92;100279.83;103110;1294;23275;-57
2024/03/02 07:56:37;;;;;;;60.20;38.10;;;;;;;10.92;91.22;100278.05;103119;1312;24300;-58
2024/03/02 07:59:04;;;;;;;58.90;38.40;;;;;;;11.23;91.67;100280.08;103890;1315;22561;-59
2024/03/02 08:01:31;;;;;;;58.80;38.70;;;;;;;11.55;90.26;100283.25;103094;1314;25715;-58
2024/03/02 08:03:58;;;;;;;56.10;37.80;;;;;;;11.67;88.83;100278.61;103889;1301;22696;-60
2024/03/02 08:06:29;;;;;;;58.60;38.00;;;;;;;11.55;87.95;100289.12;103257;1307;22571;-58
2024/03/02 08:09:04;;;;;;;55.50;35.60;;;;;;;11.30;88.45;100294.42;104405;1308;22711;-57
2024/03/02 08:11:31;;;;;;;57.60;37.70;;;;;;;11.13;89.51;100297.58;103151;1308;23810;-59
2024/03/02 08:13:56;;;;;;;59.70;38.10;;;;;;;10.99;89.56;100298.93;103125;1301;22622;-59
2024/03/02 08:16:23;;;;;;;61.10;38.90;;;;;;;10.93;90.31;100295.27;103058;1298;22615;-58
2024/03/02 08:18:49;;;;;;;64.30;37.70;;;;;;;10.91;90.81;100292.59;103255;1314;22609;-58
2024/03/02 08:21:16;;;;;;;62.20;38.80;;;;;;;10.91;91.04;100289.14;103207;1304;25384;-59
2024/03/02 08:23:42;;;;;;;65.20;39.20;;;;;;;10.96;90.87;100291.77;103150;1310;26635;-58
2024/03/02 08:26:09;;;;;;;60.50;36.50;;;;;;;10.98;90.57;100293.95;103180;1309;24734;-58
2024/03/02 08:28:36;;;;;;;60.70;38.00;;;;;;;11.07;90.58;100298.41;103157;1316;25449;-58
2024/03/02 08:31:03;;;;;;;54.80;35.40;;;;;;;11.18;90.50;100300.73;103137;1315;22573;-59
2024/03/02 08:33:28;;;;;;;60.10;37.40;;;;;;;11.31;88.58;100296.98;104046;1315;24294;-58
2024/03/02 08:35:54;;;;;;;53.30;34.30;;;;;;;11.41;89.86;100295.86;103060;1298;26726;-57
2024/03/02 08:38:20;;;;;;;56.10;35.60;;;;;;;11.60;89.71;100299.35;103102;1316;22575;-59
2024/03/02 08:40:46;;;;;;;61.40;35.40;;;;;;;11.74;89.64;100300.04;103214;1301;25359;-58
2024/03/02 08:43:11;;;;;;;53.70;36.20;;;;;;;11.91;89.30;100296.67;103076;1314;22688;-57
2024/03/02 08:45:39;;;;;;;51.10;34.20;;;;;;;12.12;90.01;100296.59;103221;1297;22558;-59
2024/03/02 08:48:08;;;;;;;49.50;33.60;;;;;;;12.35;89.54;100294.42;103055;1303;22578;-59
2024/03/02 08:50:34;;;;;;;48.50;32.10;;;;;;;12.49;89.22;100292.42;103617;1315;22621;-59
2024/03/02 08:53:00;;;;;;;48.60;33.10;;;;;;;12.55;86.09;100295.52;103141;1315;22603;-58
2024/03/02 08:55:26;;;;;;;51.60;34.00;;;;;;;12.63;87.19;100295.46;103161;1295;22643;-60
2024/03/02 08:57:52;;;;;;;48.80;32.40;;;;;;;12.73;85.48;100294.83;103180;1314;27505;-59
2024/03/02 09:00:18;;;;;;;46.50;32.40;;;;;;;12.71;83.37;100295.23;103079;1315;24429;-57
2024/03/02 09:02:47;;;;;;;46.90;33.70;;;;;;;12.62;83.39;100301.36;103509;1308;22544;-57
2024/03/02 09:05:12;;;;;;;46.60;32.80;;;;;;;12.55;84.14;100305.04;103161;1292;24329;-59
2024/03/02 09:07:38;;;;;;;41.70;31.00;;;;;;;12.83;86.52;100304.38;103210;1300;26071;-58
2024/03/02 09:10:08;;;;;;;41.70;30.50;;;;;;;13.30;83.74;100304.31;103111;1315;27525;-60
2024/03/02 09:12:43;;;;;;;55.40;32.30;;;;;;;13.64;84.29;100301.92;104423;1307;22570;-56
2024/03/02 09:15:09;;;;;;;42.40;29.20;;;;;;;13.95;81.64;100303.48;103096;1308;24855;-60
2024/03/02 09:17:35;;;;;;;38.80;27.90;;;;;;;14.19;83.68;100306.60;103118;1295;22566;-58
2024/03/02 09:20:00;;;;;;;47.30;31.10;;;;;;;14.44;82.70;100304.67;103155;1314;26587;-58
2024/03/02 09:22:29;;;;;;;46.90;29.80;;;;;;;14.82;85.87;100301.13;103132;1314;25370;-59
2024/03/02 09:24:58;;;;;;;56.30;32.30;;;;;;;15.22;81.37;100301.63;103168;1314;22583;-59
2024/03/02 09:27:24;;;;;;;38.90;29.00;;;;;;;15.17;80.84;100302.34;103091;1297;25349;-59
2024/03/02 09:29:49;;;;;;;42.50;29.10;;;;;;;15.23;79.59;100299.16;103110;1309;24242;-59
2024/03/02 09:32:27;;;;;;;37.50;27.30;;;;;;;15.25;83.38;100297.86;103064;1301;23102;-59
2024/03/02 09:34:53;;;;;;;38.70;27.20;;;;;;;15.63;81.10;100302.39;106055;1315;22621;-58
2024/03/02 09:37:19;;;;;;;79.70;32.20;;;;;;;15.87;81.87;100298.23;103048;1301;24329;-59
2024/03/02 09:39:45;;;;;;;137.90;34.90;;;;;;;16.22;82.63;100299.46;102846;1314;24392;-59
2024/03/02 09:42:12;;;;;;;47.80;27.10;;;;;;;16.15;77.33;100293.70;102950;1310;22692;-57
2024/03/02 09:44:38;;;;;;;70.70;29.20;;;;;;;16.17;78.07;100290.99;103008;1315;22775;-57
2024/03/02 09:47:08;;;;;;;56.20;26.80;;;;;;;16.30;79.60;100291.10;103043;1296;25555;-58
2024/03/02 09:49:34;;;;;;;66.90;30.50;;;;;;;16.35;81.30;100300.11;103005;1313;25511;-59
2024/03/02 09:52:01;;;;;;;59.30;29.10;;;;;;;16.49;80.47;100304.34;107015;1308;22253;-59
2024/03/02 09:54:29;;;;;;;41.10;26.50;;;;;;;16.51;80.33;100305.44;107056;1307;22355;-59
2024/03/02 09:56:54;;;;;;;38.00;27.60;;;;;;;16.52;76.97;100307.86;107026;1294;22386;-59
2024/03/02 09:59:27;;;;;;;35.10;25.50;;;;;;;16.49;78.53;100304.30;104005;1302;25364;-58
2024/03/02 10:02:00;;;;;;;41.00;26.70;;;;;;;16.75;80.64;100302.45;103164;1315;24427;-58
2024/03/02 10:05:05;;;;;;;38.10;25.80;;;;;;;16.99;79.23;100305.00;103080;1298;22623;-58
2024/03/02 10:07:36;;;;;;;37.20;25.60;;;;;;;17.31;80.06;100311.05;103986;1296;22603;-59
2024/03/02 10:10:15;;;;;;;204.30;40.00;;;;;;;17.50;71.25;100315.54;103046;1310;22568;-58
2024/03/02 10:12:41;;;;;;;136.80;36.60;;;;;;;17.70;74.90;100316.64;105291;1307;22568;-58
2024/03/02 10:15:09;;;;;;;215.40;38.80;;;;;;;18.12;75.37;100315.54;103074;1315;24306;-58
2024/03/02 10:17:38;;;;;;;224.30;40.20;;;;;;;18.44;71.88;100312.06;103055;1295;22558;-58
2024/03/02 10:20:37;;;;;;;;;;;;;;;;;;;;;
2024/03/02 10:23:45;;;;;;;;;;;;;;;;;;;;;
2024/03/02 10:26:23;;;;;;;64.50;27.10;;;;;;;17.45;71.25;100313.54;102942;1301;24248;-59
2024/03/02 10:28:52;;;;;;;51.40;26.30;;;;;;;17.34;75.79;100312.13;102895;1308;25673;-59
2024/03/02 10:31:17;;;;;;;29.00;22.70;;;;;;;17.67;77.21;100307.76;102888;1310;413171;-59
2024/03/02 10:33:44;;;;;;;82.20;29.70;;;;;;;17.83;70.51;100302.55;103042;1307;22573;-60
2024/03/02 10:36:17;;;;;;;220.70;37.40;;;;;;;17.99;72.65;100300.68;102991;1301;22573;-59
2024/03/02 10:38:47;;;;;;;117.00;30.80;;;;;;;18.48;74.54;100297.36;102985;1300;22570;-59
2024/03/02 10:41:18;;;;;;;175.70;36.50;;;;;;;18.72;72.29;100298.21;103130;1315;24455;-60
2024/03/02 10:43:51;;;;;;;198.20;36.30;;;;;;;18.93;70.30;100297.18;106487;1310;22625;-60
2024/03/02 10:46:41;;;;;;;300.60;39.80;;;;;;;18.96;66.61;100292.11;103081;1300;22605;-59
2024/03/02 10:49:06;;;;;;;355.40;47.50;;;;;;;19.01;65.89;100284.37;103051;1315;22589;-59
2024/03/02 10:51:54;;;;;;;429.00;48.50;;;;;;;18.94;61.69;100284.89;103086;1311;24264;-59
2024/03/02 10:54:44;;;;;;;226.50;38.70;;;;;;;19.40;64.53;100279.16;103067;1302;25319;-59
2024/03/02 10:57:13;;;;;;;271.40;43.40;;;;;;;20.01;66.52;100282.82;102929;1303;23459;-60
2024/03/02 10:59:52;;;;;;;474.70;51.80;;;;;;;20.35;63.53;100281.30;103189;1304;23974;-59
2024/03/02 11:02:25;;;;;;;458.10;53.30;;;;;;;20.86;68.12;100284.19;103156;1315;24289;-59
2024/03/02 11:05:14;;;;;;;408.20;54.30;;;;;;;20.72;62.61;100285.09;103866;1315;23997;-59
2024/03/02 11:07:52;;;;;;;635.40;59.60;;;;;;;20.70;60.71;100277.36;103024;1293;22569;-59
2024/03/02 11:10:18;;;;;;;588.40;53.50;;;;;;;20.68;58.73;100270.31;103101;1307;25363;-59
2024/03/02 11:12:53;;;;;;;558.20;53.40;;;;;;;21.07;63.43;100269.33;103131;1315;24263;-59
2024/03/02 11:15:22;;;;;;;608.10;52.50;;;;;;;22.00;69.11;100266.38;103080;1316;25451;-59
2024/03/02 11:17:49;;;;;;;461.50;49.10;;;;;;;22.88;66.04;100259.10;103131;1308;24278;-60
2024/03/02 11:20:18;;;;;;;612.10;64.60;;;;;;;23.29;65.80;100263.63;103117;1299;22693;-59